createdAt,value
2024-01-15T00:07:22.508Z,0.48
2024-01-15T00:17:25.825Z,0.47
2024-01-15T00:27:29.447Z,0.45
2024-01-15T00:37:33.264Z,0.42
2024-01-15T00:47:36.794Z,0.39
2024-01-15T00:57:41.409Z,0.41
2024-01-15T01:07:44.837Z,0.43
2024-01-15T01:17:48.280Z,0.44
2024-01-15T01:27:51.518Z,0.41
2024-01-15T01:37:54.872Z,0.32
2024-01-15T01:47:58.289Z,0.31
2024-01-15T01:58:02.387Z,0.27
2024-01-15T02:08:05.949Z,0.17
2024-01-15T02:18:10.124Z,0.06
2024-01-15T02:28:15.598Z,-0.16
2024-01-15T02:38:19.320Z,-0.33
2024-01-15T02:48:22.661Z,-0.25
2024-01-15T02:58:26.032Z,-0.23
2024-01-15T03:08:30.648Z,-0.22
2024-01-15T03:18:34.088Z,-0.29
2024-01-15T03:28:37.469Z,-0.40
2024-01-15T03:38:43.650Z,-0.47
2024-01-15T03:48:46.946Z,-0.45
2024-01-15T03:58:50.259Z,-0.34
2024-01-15T04:08:53.507Z,-0.26
2024-01-15T04:18:56.724Z,-0.31
2024-01-15T04:29:00.393Z,-0.47
2024-01-15T04:39:03.634Z,-0.58
2024-01-15T04:49:07.111Z,-0.63
2024-01-15T04:59:10.423Z,-0.64
2024-01-15T05:09:14.769Z,-0.59
2024-01-15T05:19:18.451Z,-0.51
2024-01-15T05:29:21.993Z,-0.54
2024-01-15T05:39:25.160Z,-0.48
2024-01-15T05:49:28.547Z,-0.27
2024-01-15T05:59:33.539Z,-0.12
2024-01-15T06:09:36.803Z,-0.09
2024-01-15T06:19:40.192Z,-0.07
2024-01-15T06:29:50.557Z,-0.09
2024-01-15T06:39:54.654Z,-0.02
2024-01-15T06:49:57.950Z,0.03
2024-01-15T07:00:02.172Z,0.12
2024-01-15T07:10:07.495Z,0.22
2024-01-15T07:20:11.416Z,0.31
2024-01-15T07:30:15.587Z,0.51
2024-01-15T07:40:18.919Z,0.74
2024-01-15T07:50:22.199Z,0.90
2024-01-15T08:00:25.575Z,0.99
2024-01-15T08:10:29.017Z,1.18
2024-01-15T08:20:32.357Z,1.31
2024-01-15T08:30:36.319Z,1.44
2024-01-15T08:40:39.793Z,1.70
2024-01-15T08:50:43.283Z,1.91
2024-01-15T09:00:46.507Z,2.07
2024-01-15T09:10:49.956Z,2.38
2024-01-15T09:20:53.304Z,2.48
2024-01-15T09:30:57.061Z,2.56
2024-01-15T09:41:00.855Z,2.76
2024-01-15T09:51:06.336Z,2.84
2024-01-15T10:01:11.194Z,2.89
2024-01-15T10:11:14.520Z,2.88
2024-01-15T10:21:17.776Z,2.94
2024-01-15T10:31:25.283Z,3.10
2024-01-15T10:41:30.661Z,3.36
2024-01-15T10:51:33.963Z,3.41
2024-01-15T11:01:38.822Z,3.56
2024-01-15T11:11:46.256Z,3.60
2024-01-15T11:21:49.666Z,3.45
2024-01-15T11:31:55.976Z,3.07
2024-01-15T11:42:01.305Z,2.80
2024-01-15T11:52:06.434Z,2.87
2024-01-15T12:02:09.835Z,2.84
2024-01-15T12:12:25.841Z,2.76
2024-01-15T12:22:30.079Z,2.79
2024-01-15T12:32:35.975Z,2.51
2024-01-15T12:42:41.190Z,2.32
2024-01-15T12:52:45.024Z,2.14
2024-01-15T13:02:48.770Z,1.93
2024-01-15T13:12:53.605Z,1.53
2024-01-15T13:22:56.859Z,1.19
2024-01-15T13:33:05.238Z,0.88
2024-01-15T13:43:09.656Z,0.59
2024-01-15T13:53:13.232Z,0.42
2024-01-15T14:03:16.852Z,0.38
2024-01-15T14:13:20.225Z,0.33
2024-01-15T14:23:23.770Z,0.23
2024-01-15T14:33:28.195Z,0.09
2024-01-15T14:43:31.693Z,-0.02
2024-01-15T14:53:34.933Z,-0.05
2024-01-15T15:03:38.336Z,-0.10
2024-01-15T15:13:45.578Z,-0.21
2024-01-15T15:23:49.865Z,-0.23
2024-01-15T15:33:53.158Z,-0.28
2024-01-15T15:43:56.754Z,-0.30
2024-01-15T15:53:59.929Z,-0.28
2024-01-15T16:04:05.525Z,-0.18
2024-01-15T16:14:08.973Z,-0.17
2024-01-15T16:24:20.396Z,-0.16
2024-01-15T16:34:29.972Z,-0.23
2024-01-15T16:44:33.634Z,-0.33
2024-01-15T16:54:38.753Z,-0.41
2024-01-15T17:04:43.809Z,-0.54
2024-01-15T17:14:46.941Z,-0.64
2024-01-15T17:24:52.963Z,-0.70
2024-01-15T17:34:56.407Z,-0.68
2024-01-15T17:44:59.704Z,-0.80
2024-01-15T17:55:04.279Z,-0.89
2024-01-15T18:05:11.092Z,-1.02
2024-01-15T18:15:14.552Z,-1.11
2024-01-15T18:25:17.922Z,-1.20
2024-01-15T18:35:22.948Z,-1.19
2024-01-15T18:45:26.424Z,-1.34
2024-01-15T18:55:29.592Z,-1.48
2024-01-15T19:05:32.967Z,-1.42
2024-01-15T19:15:36.224Z,-1.19
2024-01-15T19:25:41.640Z,-0.98
2024-01-15T19:35:45.497Z,-0.88
2024-01-15T19:46:13.386Z,-0.83
2024-01-15T19:56:24.886Z,-0.66
2024-01-15T20:06:29.151Z,-0.55
2024-01-15T20:16:32.873Z,-0.52
2024-01-15T20:26:38.923Z,-0.63
2024-01-15T20:36:42.770Z,-0.62
2024-01-15T20:46:47.664Z,-0.61
2024-01-15T20:56:53.309Z,-0.71
2024-01-15T21:06:59.529Z,-1.02
2024-01-15T21:17:04.759Z,-1.15
2024-01-15T21:27:07.960Z,-1.18
2024-01-15T21:37:13.850Z,-1.12
2024-01-15T21:47:17.185Z,-1.06
2024-01-15T21:57:20.623Z,-1.01
2024-01-15T22:07:23.861Z,-0.99
2024-01-15T22:17:27.270Z,-1.06
2024-01-15T22:27:30.555Z,-1.02
2024-01-15T22:37:34.764Z,-0.94
2024-01-15T22:47:38.322Z,-0.94
2024-01-15T22:57:41.916Z,-1.01
2024-01-15T23:07:45.129Z,-1.03
2024-01-15T23:17:48.870Z,-1.07
2024-01-15T23:27:52.683Z,-1.21
2024-01-15T23:37:56.225Z,-1.31
2024-01-15T23:47:59.530Z,-1.33
2024-01-15T23:58:02.711Z,-1.34
